Kingman, AZ

3:26 PM MST on September 02, 2014 (GMT -0700)
Southeast Kingman | Change Station
CLOSE
Current Station
Personal Weather Station
Location: Kingman, AZ
Elevation: 3584 ft
Nearby Weather Stations

Elev 3584 ft 35.20 °N, 114.00 °W | Updated 2 minutes ago

Clear
Clear
95.4 °F
Feels Like 92 °F
N
2.0
Wind Variable Wind from South
Gusts 3.0 mph

Today
High -- | Low -- °F
--% Chance of Precip.
Yesterday
High -- | Low -- °F
Precip. -- in
6:09 AM 7:01 PM
First Quarter, 55% visible
Pressure 29.68 in
Visibility 10.0 miles
Clouds Clear
Heat Index 92 °F
Dew Point 45 °F
Humidity 18%
Rainfall 0.00 in
Snow Depth Not available.
UV 7 out of 12
Pollen 7.50 out of 12
Air Quality Not available.
Flu Activity Not available.
METAR KIGM 022151Z AUTO 23016G20KT 10SM CLR 36/02 A2991 RMK AO2 SLP051 T03610022

More Conditions Fewer Conditions

Pressure 29.68 in
Visibility 10.0 miles
Clouds Clear
Heat Index 92 °F
Dew Point 45 °F
Humidity 18%
Rainfall 0.00 in
Snow Depth Not available.
UV 7 out of 12
Pollen 7.50 out of 12
Air Quality Not available.
Flu Activity Not available.
METAR KIGM 022151Z AUTO 23016G20KT 10SM CLR 36/02 A2991 RMK AO2 SLP051 T03610022

More Conditions Fewer Conditions

10-Day Weather Forecast

Almanac

Astronomy

Sep. 02, 2014 Rise Set
Actual Time 6:09 AM MST 7:01 PM MST
Civil Twilight 5:43 AM MST 7:27 PM MST
Nautical Twilight 5:13 AM MST 7:57 PM MST
Astronomical Twilight 4:41 AM MST 8:29 PM MST
Moon 1:42 PM MST No Moon Set
Length of Visible Light 13h 43m
Length of Day
12h 51m
Tomorrow will be 2m 7s shorter.
First Quarter, 55% of the Moon is Illuminated
Today
First Quarter
Sep 8
Full
Sep 15
Last Quarter
Sep 24
New
Oct 1
First Quarter

Today's Extremes

State Highs State Lows

Community

WunderPhotos

Upload Photos

1,749,788 photos uploaded!

Nearby

Snow Depth

Station Depth Elevation
Workman Creek 0 in 6900 ft
Beaver Head 28 in 7990 ft

Earthquake Activity

City Distance Mag. Time & Date
No recent earthquake activity has been reported nearby.
Minimum magnitude displayed is 2.5.

Coastal Water Temperatures

Place Temperature
No Stations Reporting

Nearby Weather Stations